Worthville, Pennsylvania
Current Conditions -  °F | °C
As of 12:53 AM on Monday 26 Jan 2015 (Local Time) from KDUJ Reporting Station
Light Snow Light Snow  
Wind Chill: 12°   Ceiling: 2300
Heat Index: 23°   Visibility: 1mi
Dew Point: 20°   Wind: 12mph
Humidity: 88%   Direction: 70°ENE
Pressure: 29.77"   Gusts: NA
Location:  41.02°N, 79.14°W
Report Text: KDUJ 260553Z AUTO 07010KT 1SM -SN BR OVC023 M05/M07 A2977 RMK AO2 SLP104 P0001 60003 T10501067 11028 21050 58007
Loading
Personal Weather Stations






























Interactive Weather Map New forecast layout! Learn more

10-Day Weather Forecast

Advertisements
Track Severe Weather on mobile